Time;durP1;ratioP1;P1;durP2;ratioP2;P2;SDS_P1;SDS_P2;PMS_P1;PMS_P2;Temp;Humidity;BMP_temperature;BMP_pressure;BME280_temperature;BME280_humidity;BME280_pressure;Samples;Min_cycle;Max_cycle;Signal;HPM_P1;HPM_P2
2022/12/14 00:01:14;;;;;;;;;;;;;;;-143.57;100.00;51469.97;5062042;28;20280;-67
2022/12/14 00:03:41;;;;;;;;;;;;;;;-143.57;100.00;51483.88;5060547;28;20015;-67
2022/12/14 00:06:09;;;;;;;;;;;;;;;-143.57;100.00;51446.13;5071045;28;20325;-67
2022/12/14 00:08:36;;;;;;;;;;;;;;;-143.57;100.00;51481.91;5067249;28;20388;-67
2022/12/14 00:11:08;;;;;;;;;;;;;;;-143.57;100.00;51466.00;5063500;28;19928;-67
2022/12/14 00:13:35;;;;;;;;;;;;;;;-143.57;100.00;51479.91;5069201;28;20023;-67
2022/12/14 00:16:13;;;;;;;;;;;;;;;-143.57;100.00;51469.97;5065022;28;19928;-67
2022/12/14 00:18:40;;;;;;;;;;;;;;;-143.57;100.00;51471.97;5068429;28;19928;-66
2022/12/14 00:21:08;;;;;;;;;;;;;;;-143.57;100.00;51442.16;5065943;28;19963;-66
2022/12/14 00:23:36;;;;;;;;;;;;;;;-143.57;100.00;51450.09;5070978;28;19978;-66
2022/12/14 00:26:07;;;;;;;;;;;;;;;-143.57;100.00;51473.94;5068431;28;20364;-66
2022/12/14 00:28:34;;;;;;;;;;;;;;;-143.57;100.00;51462.03;5065267;28;19928;-67
2022/12/14 00:31:01;;;;;;;;;;;;;;;-143.57;100.00;51454.06;5067856;28;19932;-67
2022/12/14 00:33:28;;;;;;;;;;;;;;;-143.57;100.00;51446.13;5064202;28;20035;-67
2022/12/14 00:35:54;;;;;;;;;;;;;;;-143.57;100.00;51464.00;5062716;28;19924;-67
2022/12/14 00:38:21;;;;;;;;;;;;;;;-143.57;100.00;51469.97;5072719;28;19924;-67
2022/12/14 00:40:48;;;;;;;;;;;;;;;-143.57;100.00;51466.00;5075913;28;20389;-67
2022/12/14 00:43:15;;;;;;;;;;;;;;;-143.57;100.00;51466.00;5056985;28;20684;-68
2022/12/14 00:45:42;;;;;;;;;;;;;;;-143.57;100.00;51481.91;5061080;28;20647;-67
2022/12/14 00:48:10;;;;;;;;;;;;;;;-143.57;100.00;51440.16;5066028;28;20420;-67
2022/12/14 00:50:36;;;;;;;;;;;;;;;-143.57;100.00;51485.88;5064276;28;20383;-67
2022/12/14 00:53:03;;;;;;;;;;;;;;;-143.57;100.00;51485.88;5061274;28;20017;-68
2022/12/14 00:55:30;;;;;;;;;;;;;;;-143.57;100.00;51466.00;5065820;28;19939;-67
2022/12/14 00:57:57;;;;;;;;;;;;;;;-143.57;100.00;51469.97;5065315;28;20022;-68
2022/12/14 01:00:23;;;;;;;;;;;;;;;-143.57;100.00;51442.16;5070335;28;19931;-68
2022/12/14 01:02:50;;;;;;;;;;;;;;;-143.57;100.00;51454.06;5068838;28;19932;-68
2022/12/14 01:05:17;;;;;;;;;;;;;;;-143.57;100.00;51462.03;5070381;28;20023;-68
2022/12/14 01:07:43;;;;;;;;;;;;;;;-143.57;100.00;51473.94;5071825;28;19931;-68
2022/12/14 01:10:14;;;;;;;;;;;;;;;-143.57;100.00;51454.06;5069713;28;20402;-68
2022/12/14 01:12:40;;;;;;;;;;;;;;;-143.57;100.00;51446.13;5070581;28;21219;-67
2022/12/14 01:15:07;;;;;;;;;;;;;;;-143.57;100.00;51414.31;5066449;28;19931;-68
2022/12/14 01:17:34;;;;;;;;;;;;;;;-143.57;100.00;51454.06;5065844;28;20063;-68
2022/12/14 01:20:01;;;;;;;;;;;;;;;-143.57;100.00;51473.94;5100829;27;20062;-68
2022/12/14 01:22:27;;;;;;;;;;;;;;;-143.57;100.00;51458.03;5072545;28;19924;-68
2022/12/14 01:24:54;;;;;;;;;;;;;;;-143.57;100.00;51450.09;5069401;28;19932;-68
2022/12/14 01:27:20;;;;;;;;;;;;;;;-143.57;100.00;51485.88;5070231;28;19989;-68
2022/12/14 01:29:47;;;;;;;;;;;;;;;-143.57;100.00;51464.00;5066504;28;20331;-68
2022/12/14 01:32:14;;;;;;;;;;;;;;;-143.57;100.00;51454.06;5070614;28;19982;-68
2022/12/14 01:34:40;;;;;;;;;;;;;;;-143.57;100.00;51485.88;5072600;28;19932;-68
2022/12/14 01:37:07;;;;;;;;;;;;;;;-143.57;100.00;51477.94;5070048;28;19924;-67
2022/12/14 01:39:34;;;;;;;;;;;;;;;-143.57;100.00;51452.09;5068394;28;19925;-67
2022/12/14 01:42:00;;;;;;;;;;;;;;;-143.57;100.00;51469.97;5069641;28;19971;-67
2022/12/14 01:44:28;;;;;;;;;;;;;;;-143.57;100.00;51462.03;5068637;28;20464;-67
2022/12/14 01:46:55;;;;;;;;;;;;;;;-143.57;100.00;51450.09;5063688;28;20050;-67
2022/12/14 01:49:21;;;;;;;;;;;;;;;-143.57;100.00;51499.78;5065609;28;19928;-67
2022/12/14 01:51:56;;;;;;;;;;;;;;;-143.57;100.00;51466.00;5061787;28;19928;-68
2022/12/14 01:54:24;;;;;;;;;;;;;;;-143.57;100.00;51466.00;5067277;28;20939;-66
2022/12/14 01:56:51;;;;;;;;;;;;;;;-143.57;100.00;51442.16;5066981;28;19932;-68
2022/12/14 01:59:22;;;;;;;;;;;;;;;-143.57;100.00;51493.84;5067509;28;19924;-68
2022/12/14 02:01:49;;;;;;;;;;;;;;;-143.57;100.00;51448.09;5064618;28;19932;-68
2022/12/14 02:04:17;;;;;;;;;;;;;;;-143.57;100.00;51466.00;5067722;28;20727;-68
2022/12/14 02:06:47;;;;;;;;;;;;;;;-143.57;100.00;51491.84;5066702;28;19989;-67
2022/12/14 02:09:25;;;;;;;;;;;;;;;-143.57;100.00;51454.06;5067572;28;20452;-67
2022/12/14 02:11:58;;;;;;;;;;;;;;;-143.57;100.00;51464.00;5066441;28;20015;-68
2022/12/14 02:14:25;;;;;;;;;;;;;;;-143.57;100.00;51475.94;5064724;28;19928;-67
2022/12/14 02:16:53;;;;;;;;;;;;;;;-143.57;100.00;51448.09;5069820;28;19924;-68
2022/12/14 02:19:20;;;;;;;;;;;;;;;-143.57;100.00;51477.94;5064930;28;20035;-67
2022/12/14 02:22:16;;;;;;;;;;;;;;;-143.57;100.00;51501.78;5069668;28;19928;-67
2022/12/14 02:25:02;;;;;;;;;;;;;;;-143.57;100.00;51462.03;5064218;28;19932;-67
2022/12/14 02:27:35;;;;;;;;;;;;;;;-143.57;100.00;51438.16;5069117;28;19925;-68
2022/12/14 02:30:02;;;;;;;;;;;;;;;-143.57;100.00;51462.03;5065129;28;19985;-67
2022/12/14 02:32:49;;;;;;;;;;;;;;;-143.57;100.00;51477.94;5070341;28;19928;-67
2022/12/14 02:35:34;;;;;;;;;;;;;;;-143.57;100.00;51473.94;5059179;28;19972;-67
2022/12/14 02:38:01;;;;;;;;;;;;;;;-143.57;100.00;51462.03;5067969;28;20889;-67
2022/12/14 02:40:45;;;;;;;;;;;;;;;-143.57;100.00;51485.88;5066078;28;19990;-67
2022/12/14 02:43:17;;;;;;;;;;;;;;;-143.57;100.00;51454.06;5065132;28;19928;-67
2022/12/14 02:46:03;;;;;;;;;;;;;;;-143.57;100.00;51462.03;5066539;28;19935;-68
2022/12/14 02:48:34;;;;;;;;;;;;;;;-143.57;100.00;51458.03;5064971;28;20672;-67
2022/12/14 02:51:17;;;;;;;;;;;;;;;-143.57;100.00;51473.94;5062552;28;19939;-68
2022/12/14 02:53:46;;;;;;;;;;;;;;;-143.57;100.00;51462.03;5065384;28;19924;-67
2022/12/14 02:56:21;;;;;;;;;;;;;;;-143.57;100.00;51479.91;5059352;28;19982;-68
2022/12/14 02:58:49;;;;;;;;;;;;;;;-143.57;100.00;51456.06;5062907;28;19929;-68
2022/12/14 03:01:21;;;;;;;;;;;;;;;-143.57;100.00;51460.03;5064055;28;19951;-67
2022/12/14 03:03:48;;;;;;;;;;;;;;;-143.57;100.00;51458.03;5061546;28;20040;-67
2022/12/14 03:06:16;;;;;;;;;;;;;;;-143.57;100.00;51481.91;5063922;28;20552;-67
2022/12/14 03:08:45;;;;;;;;;;;;;;;-143.57;100.00;51456.06;5069989;28;19924;-67
2022/12/14 03:11:15;;;;;;;;;;;;;;;-143.57;100.00;51462.03;5065012;28;19959;-67
2022/12/14 03:14:11;;;;;;;;;;;;;;;-143.57;100.00;51452.09;5067990;28;20361;-67
2022/12/14 03:16:41;;;;;;;;;;;;;;;-143.57;100.00;51450.09;5055069;28;19986;-67
2022/12/14 03:19:17;;;;;;;;;;;;;;;-143.57;100.00;51466.00;5068372;28;19985;-67
2022/12/14 03:21:50;;;;;;;;;;;;;;;-143.57;100.00;51456.06;5064347;28;19959;-66
2022/12/14 03:24:22;;;;;;;;;;;;;;;-143.57;100.00;51466.00;5067908;28;20337;-66
2022/12/14 03:26:55;;;;;;;;;;;;;;;-143.57;100.00;51450.09;5064469;28;20550;-66
2022/12/14 03:29:29;;;;;;;;;;;;;;;-143.57;100.00;51479.91;5061857;28;20579;-66
2022/12/14 03:31:58;;;;;;;;;;;;;;;-143.57;100.00;51450.09;5064157;28;19928;-66
2022/12/14 03:34:30;;;;;;;;;;;;;;;-143.57;100.00;51473.94;5061766;28;19924;-66
2022/12/14 03:37:11;;;;;;;;;;;;;;;-143.57;100.00;51491.84;5068795;28;19932;-66
2022/12/14 03:39:39;;;;;;;;;;;;;;;-143.57;100.00;51466.00;5091157;28;20513;-66
2022/12/14 03:42:21;;;;;;;;;;;;;;;-143.57;100.00;51446.13;5064575;28;19932;-67
2022/12/14 03:44:53;;;;;;;;;;;;;;;-143.57;100.00;51493.84;5061853;28;20037;-65
2022/12/14 03:47:38;;;;;;;;;;;;;;;-143.57;100.00;51442.16;5064098;28;20456;-67
2022/12/14 03:50:21;;;;;;;;;;;;;;;-143.57;100.00;51489.84;5065604;28;20007;-66
2022/12/14 03:52:58;;;;;;;;;;;;;;;-143.57;100.00;51469.97;5065034;28;20011;-66
2022/12/14 03:55:29;;;;;;;;;;;;;;;-143.57;100.00;51495.81;5056366;28;20394;-66
2022/12/14 03:58:07;;;;;;;;;;;;;;;-143.57;100.00;51450.09;5064433;28;19928;-66
2022/12/14 04:00:43;;;;;;;;;;;;;;;-143.57;100.00;51442.16;5066357;28;19932;-66
2022/12/14 04:03:16;;;;;;;;;;;;;;;-143.57;100.00;51454.06;5073369;28;20008;-66
2022/12/14 04:05:45;;;;;;;;;;;;;;;-143.57;100.00;51493.84;5066377;28;19924;-66
2022/12/14 04:08:21;;;;;;;;;;;;;;;-143.57;100.00;51469.97;5063815;28;19960;-66
2022/12/14 04:19:22;;;;;;;;;;;;;;;-143.57;100.00;51446.13;5064693;28;19935;-67
2022/12/14 04:21:52;;;;;;;;;;;;;;;-143.57;100.00;51473.94;5057587;28;20658;-66
2022/12/14 04:27:14;;;;;;;;;;;;;;;-143.57;100.00;51469.97;5058454;28;19925;-67
2022/12/14 04:29:57;;;;;;;;;;;;;;;-143.57;100.00;51466.00;5061864;28;19929;-67
2022/12/14 04:32:27;;;;;;;;;;;;;;;-143.57;100.00;51462.03;5062436;28;19935;-67
2022/12/14 04:34:59;;;;;;;;;;;;;;;-143.57;100.00;51454.06;5063224;28;19936;-67
2022/12/14 04:37:27;;;;;;;;;;;;;;;-143.57;100.00;51442.16;5061609;28;19939;-67
2022/12/14 04:40:23;;;;;;;;;;;;;;;-143.57;100.00;51466.00;5067804;28;19931;-64
2022/12/14 04:42:57;;;;;;;;;;;;;;;-143.57;100.00;51473.94;5050377;28;19932;-65
2022/12/14 04:45:32;;;;;;;;;;;;;;;-143.57;100.00;51489.84;5067264;28;19928;-64
2022/12/14 04:48:04;;;;;;;;;;;;;;;-143.57;100.00;51462.03;5063995;28;19924;-65
2022/12/14 04:50:34;;;;;;;;;;;;;;;-143.57;100.00;51448.09;5063997;28;20628;-65
2022/12/14 04:53:09;;;;;;;;;;;;;;;-143.57;100.00;51479.91;5060825;28;20398;-65
2022/12/14 04:55:42;;;;;;;;;;;;;;;-143.57;100.00;51497.81;5065822;28;20461;-65
2022/12/14 04:58:08;;;;;;;;;;;;;;;-143.57;100.00;51468.00;5067485;28;19928;-66
2022/12/14 05:00:37;;;;;;;;;;;;;;;-143.57;100.00;51483.88;5069112;28;19928;-65
2022/12/14 05:03:39;;;;;;;;;;;;;;;-143.57;100.00;51466.00;5070875;28;19932;-65
2022/12/14 05:06:09;;;;;;;;;;;;;;;-143.57;100.00;51466.00;5013413;28;19925;-67
2022/12/14 05:08:44;;;;;;;;;;;;;;;-143.57;100.00;51501.78;5054307;28;19925;-66
2022/12/14 05:11:29;;;;;;;;;;;;;;;-143.57;100.00;51489.84;5069547;28;20397;-66
2022/12/14 05:14:27;;;;;;;;;;;;;;;-143.57;100.00;51485.88;5065914;28;20417;-66
2022/12/14 05:16:54;;;;;;;;;;;;;;;-143.57;100.00;51454.06;5071829;28;20371;-66
2022/12/14 05:19:25;;;;;;;;;;;;;;;-143.57;100.00;51495.81;5069902;28;19960;-66
2022/12/14 05:21:52;;;;;;;;;;;;;;;-143.57;100.00;51485.88;5071363;28;20393;-67
2022/12/14 05:24:19;;;;;;;;;;;;;;;-143.57;100.00;51452.09;5067475;28;19977;-67
2022/12/14 05:26:46;;;;;;;;;;;;;;;-143.57;100.00;51458.03;5070126;28;20051;-67
2022/12/14 05:29:13;;;;;;;;;;;;;;;-143.57;100.00;51462.03;5068079;28;19933;-66
2022/12/14 05:31:40;;;;;;;;;;;;;;;-143.57;100.00;51454.06;5057209;28;19974;-67
2022/12/14 05:34:14;;;;;;;;;;;;;;;-143.57;100.00;51442.16;5060481;28;19925;-66
2022/12/14 05:36:41;;;;;;;;;;;;;;;-143.57;100.00;51477.94;5067876;28;19935;-67
2022/12/14 05:39:07;;;;;;;;;;;;;;;-143.57;100.00;51493.84;5067609;28;20028;-66
2022/12/14 05:41:34;;;;;;;;;;;;;;;-143.57;100.00;51458.03;5056486;28;20001;-67
2022/12/14 05:44:01;;;;;;;;;;;;;;;-143.57;100.00;51446.13;5061365;28;20523;-66
2022/12/14 05:46:27;;;;;;;;;;;;;;;-143.57;100.00;51428.22;5043276;28;20399;-66
2022/12/14 05:48:54;;;;;;;;;;;;;;;-143.57;100.00;51471.97;5063094;28;19924;-64
2022/12/14 05:51:20;;;;;;;;;;;;;;;-143.57;100.00;51450.09;5061656;28;20015;-66
2022/12/14 05:53:47;;;;;;;;;;;;;;;-143.57;100.00;51477.94;5063491;28;19928;-67
2022/12/14 05:56:14;;;;;;;;;;;;;;;-143.57;100.00;51499.78;5073972;28;19935;-67
2022/12/14 05:58:40;;;;;;;;;;;;;;;-143.57;100.00;51481.91;5069356;28;19932;-67
2022/12/14 06:01:08;;;;;;;;;;;;;;;-143.57;100.00;51473.94;5066468;28;20583;-67
2022/12/14 06:03:44;;;;;;;;;;;;;;;-143.57;100.00;51497.81;5067806;28;20017;-67
2022/12/14 06:06:11;;;;;;;;;;;;;;;-143.57;100.00;51458.03;5066392;28;20028;-67
2022/12/14 06:08:39;;;;;;;;;;;;;;;-143.57;100.00;51471.97;5068031;28;19935;-68
2022/12/14 06:11:07;;;;;;;;;;;;;;;-143.57;100.00;51434.19;5064837;28;19932;-67
2022/12/14 06:13:34;;;;;;;;;;;;;;;-143.57;100.00;51458.03;5065135;28;19924;-67
2022/12/14 06:16:12;;;;;;;;;;;;;;;-143.57;100.00;51469.97;5073155;28;20456;-66
2022/12/14 06:19:05;;;;;;;;;;;;;;;-143.57;100.00;51473.94;5068705;28;19985;-66
2022/12/14 06:21:33;;;;;;;;;;;;;;;-143.57;100.00;51442.16;5067509;28;19928;-66
2022/12/14 06:24:00;;;;;;;;;;;;;;;-143.57;100.00;51454.06;5070372;28;19927;-66
2022/12/14 06:26:28;;;;;;;;;;;;;;;-143.57;100.00;51477.94;5069912;28;19984;-66
2022/12/14 06:28:56;;;;;;;;;;;;;;;-143.57;100.00;51438.16;5067089;28;20506;-66
2022/12/14 06:31:23;;;;;;;;;;;;;;;-143.57;100.00;51485.88;5069069;28;19938;-66
2022/12/14 06:33:52;;;;;;;;;;;;;;;-143.57;100.00;51483.88;5063247;28;19924;-66
2022/12/14 06:36:22;;;;;;;;;;;;;;;-143.57;100.00;51481.91;5060367;28;19928;-66
2022/12/14 06:38:50;;;;;;;;;;;;;;;-143.57;100.00;51462.03;5064987;28;19924;-66
2022/12/14 06:41:16;;;;;;;;;;;;;;;-143.57;100.00;51462.03;5065176;28;19931;-66
2022/12/14 06:43:43;;;;;;;;;;;;;;;-143.57;100.00;51458.03;5060522;28;19940;-66
2022/12/14 06:46:15;;;;;;;;;;;;;;;-143.57;100.00;51464.00;5062516;28;20662;-67
2022/12/14 06:48:42;;;;;;;;;;;;;;;-143.57;100.00;51481.91;5059701;28;19932;-67
2022/12/14 06:51:10;;;;;;;;;;;;;;;-143.57;100.00;51481.91;5059198;28;19928;-67
2022/12/14 06:53:36;;;;;;;;;;;;;;;-143.57;100.00;51454.06;5058695;28;20381;-67
2022/12/14 06:56:11;;;;;;;;;;;;;;;-143.57;100.00;51473.94;5057427;28;20453;-66
2022/12/14 06:58:38;;;;;;;;;;;;;;;-143.57;100.00;51469.97;5099673;27;20524;-67
2022/12/14 07:01:07;;;;;;;;;;;;;;;-143.57;100.00;51509.72;5064610;28;19971;-67
2022/12/14 07:03:34;;;;;;;;;;;;;;;-143.57;100.00;51475.94;5066277;28;19940;-66
2022/12/14 07:06:02;;;;;;;;;;;;;;;-143.57;100.00;51481.91;5067236;27;19924;-66
2022/12/14 07:08:30;;;;;;;;;;;;;;;-143.57;100.00;51446.13;5061790;28;19929;-66
2022/12/14 07:11:00;;;;;;;;;;;;;;;-143.57;100.00;51497.81;5061266;28;20481;-65
2022/12/14 07:13:28;;;;;;;;;;;;;;;-143.57;100.00;51466.00;5063004;28;20023;-67
2022/12/14 07:15:56;;;;;;;;;;;;;;;-143.57;100.00;51458.03;5069629;27;19967;-67
2022/12/14 07:18:22;;;;;;;;;;;;;;;-143.57;100.00;51466.00;5065385;28;20463;-67
2022/12/14 07:20:56;;;;;;;;;;;;;;;-143.57;100.00;51468.00;5068142;28;19989;-66
2022/12/14 07:23:23;;;;;;;;;;;;;;;-143.57;100.00;51497.81;5069538;28;19971;-68
2022/12/14 07:25:59;;;;;;;;;;;;;;;-143.57;100.00;51444.13;5077539;28;19928;-69
2022/12/14 07:28:26;;;;;;;;;;;;;;;-143.57;100.00;51454.06;5066811;28;19939;-68
2022/12/14 07:30:54;;;;;;;;;;;;;;;-143.57;100.00;51477.94;5071916;28;20042;-72
2022/12/14 07:33:20;;;;;;;;;;;;;;;-143.57;100.00;51438.16;5062513;28;20375;-67
2022/12/14 07:35:47;;;;;;;;;;;;;;;-143.57;100.00;51471.97;5072730;28;20465;-68
2022/12/14 07:38:14;;;;;;;;;;;;;;;-143.57;100.00;51434.19;5069875;28;19962;-68
2022/12/14 07:40:41;;;;;;;;;;;;;;;-143.57;100.00;51468.00;5064727;28;19977;-67
2022/12/14 07:43:07;;;;;;;;;;;;;;;-143.57;100.00;51456.06;5064934;28;20416;-67
2022/12/14 07:45:34;;;;;;;;;;;;;;;-143.57;100.00;51513.72;5060529;28;20457;-67
2022/12/14 07:48:01;;;;;;;;;;;;;;;-143.57;100.00;51440.16;5057430;28;20027;-67
2022/12/14 07:50:27;;;;;;;;;;;;;;;-143.57;100.00;51477.94;5068997;28;19930;-68
2022/12/14 07:52:54;;;;;;;;;;;;;;;-143.57;100.00;51477.94;5058589;28;19932;-67
2022/12/14 07:55:21;;;;;;;;;;;;;;;-143.57;100.00;51493.84;5056874;28;20039;-67
2022/12/14 07:57:47;;;;;;;;;;;;;;;-143.57;100.00;51493.84;5063674;28;20746;-67
2022/12/14 08:00:15;;;;;;;;;;;;;;;-143.57;100.00;51456.06;5066806;27;19927;-67
2022/12/14 08:02:42;;;;;;;;;;;;;;;-143.57;100.00;51450.09;5068278;28;20678;-68
2022/12/14 08:05:09;;;;;;;;;;;;;;;-143.57;100.00;51440.16;5066973;28;19959;-67
2022/12/14 08:07:38;;;;;;;;;;;;;;;-143.57;100.00;51473.94;5073679;28;20033;-66
2022/12/14 08:10:05;;;;;;;;;;;;;;;-143.57;100.00;51485.88;5068325;28;19990;-66
2022/12/14 08:12:32;;;;;;;;;;;;;;;-143.57;100.00;51473.94;5068806;28;19932;-65
2022/12/14 08:14:58;;;;;;;;;;;;;;;-143.57;100.00;51493.84;5072165;28;19924;-66
2022/12/14 08:17:25;;;;;;;;;;;;;;;-143.57;100.00;51497.81;5069889;28;20397;-67
2022/12/14 08:19:51;;;;;;;;;;;;;;;-143.57;100.00;51460.03;5071447;28;20282;-66
2022/12/14 08:22:18;;;;;;;;;;;;;;;-143.57;100.00;51469.97;5069731;28;20058;-67
2022/12/14 08:24:45;;;;;;;;;;;;;;;-143.57;100.00;51505.75;5071409;28;20031;-66
2022/12/14 08:27:15;;;;;;;;;;;;;;;-143.57;100.00;51430.22;5070445;28;19932;-66
2022/12/14 08:29:41;;;;;;;;;;;;;;;-143.57;100.00;51446.13;5066867;28;19928;-66
2022/12/14 08:32:09;;;;;;;;;;;;;;;-143.57;100.00;51483.88;5066318;28;19925;-66
2022/12/14 08:34:35;;;;;;;;;;;;;;;-143.57;100.00;51450.09;5074247;28;19993;-67
2022/12/14 08:37:02;;;;;;;;;;;;;;;-143.57;100.00;51517.69;5067948;28;19924;-68
2022/12/14 08:39:29;;;;;;;;;;;;;;;-143.57;100.00;51477.94;5064467;28;19929;-68
2022/12/14 08:41:55;;;;;;;;;;;;;;;-143.57;100.00;51513.72;5067760;28;20021;-67
2022/12/14 08:44:22;;;;;;;;;;;;;;;-143.57;100.00;51477.94;5062061;28;20180;-68
2022/12/14 08:46:49;;;;;;;;;;;;;;;-143.57;100.00;51487.88;5061025;28;19935;-67
2022/12/14 08:49:16;;;;;;;;;;;;;;;-143.57;100.00;51473.94;5062694;28;19932;-67
2022/12/14 08:51:42;;;;;;;;;;;;;;;-143.57;100.00;51485.88;5064791;28;19924;-67
2022/12/14 08:54:09;;;;;;;;;;;;;;;-143.57;100.00;51466.00;5056781;28;19928;-67
2022/12/14 08:56:36;;;;;;;;;;;;;;;-143.57;100.00;51454.06;5065266;28;20017;-67
2022/12/14 08:59:03;;;;;;;;;;;;;;;-143.57;100.00;51493.84;5063004;28;19928;-70
2022/12/14 09:01:30;;;;;;;;;;;;;;;-143.57;100.00;51458.03;5075781;28;19935;-65
2022/12/14 09:04:04;;;;;;;;;;;;;;;-143.57;100.00;51469.97;5060044;28;19921;-66
2022/12/14 09:06:32;;;;;;;;;;;;;;;-143.57;100.00;51485.88;5070815;28;19986;-66
2022/12/14 09:08:59;;;;;;;;;;;;;;;-143.57;100.00;51481.91;5061805;28;19932;-66
2022/12/14 09:11:25;;;;;;;;;;;;;;;-143.57;100.00;51462.03;5070510;28;19959;-66
2022/12/14 09:13:53;;;;;;;;;;;;;;;-143.57;100.00;51469.97;5063273;28;19975;-66
2022/12/14 09:16:21;;;;;;;;;;;;;;;-143.57;100.00;51475.94;5061811;28;20684;-66
2022/12/14 09:18:47;;;;;;;;;;;;;;;-143.57;100.00;51505.75;5062013;28;19925;-66
2022/12/14 09:21:14;;;;;;;;;;;;;;;-143.57;100.00;51466.00;5060749;28;20003;-66
2022/12/14 09:23:41;;;;;;;;;;;;;;;-143.57;100.00;51495.81;5061026;28;19928;-66
2022/12/14 09:26:11;;;;;;;;;;;;;;;-143.57;100.00;51513.72;5057933;28;20587;-65
2022/12/14 09:28:38;;;;;;;;;;;;;;;-143.57;100.00;51505.75;5064818;28;19933;-65
2022/12/14 09:31:13;;;;;;;;;;;;;;;-143.57;100.00;51469.97;5060979;28;19967;-65
2022/12/14 09:33:39;;;;;;;;;;;;;;;-143.57;100.00;51519.69;5065597;28;20597;-65
2022/12/14 09:36:14;;;;;;;;;;;;;;;-143.57;100.00;51479.91;5055424;28;20019;-65
2022/12/14 09:38:41;;;;;;;;;;;;;;;-143.57;100.00;51454.06;5063536;28;19967;-64
2022/12/14 09:41:35;;;;;;;;;;;;;;;-143.57;100.00;51454.06;5061091;28;19928;-65
2022/12/14 09:44:09;;;;;;;;;;;;;;;-143.57;100.00;51430.22;5063660;28;19963;-65
2022/12/14 09:46:46;;;;;;;;;;;;;;;-143.57;100.00;51458.03;5058573;28;19932;-65
2022/12/14 09:49:22;;;;;;;;;;;;;;;-143.57;100.00;51501.78;5065286;28;20372;-65
2022/12/14 09:51:50;;;;;;;;;;;;;;;-143.57;100.00;51444.13;5062451;28;19936;-65
2022/12/14 09:54:19;;;;;;;;;;;;;;;-143.57;100.00;51477.94;5061840;28;19925;-64
2022/12/14 09:56:45;;;;;;;;;;;;;;;-143.57;100.00;51428.22;5067425;28;19967;-65
2022/12/14 09:59:15;;;;;;;;;;;;;;;-143.57;100.00;51464.00;5065010;28;19932;-65
2022/12/14 10:01:45;;;;;;;;;;;;;;;-143.57;100.00;51493.84;5063824;28;19947;-65
2022/12/14 10:04:38;;;;;;;;;;;;;;;-143.57;100.00;51454.06;5061538;28;19924;-65
2022/12/14 10:07:07;;;;;;;;;;;;;;;-143.57;100.00;51487.88;5068939;28;19928;-65
2022/12/14 10:09:37;;;;;;;;;;;;;;;-143.57;100.00;51489.84;5065770;28;20011;-65
2022/12/14 10:12:04;;;;;;;;;;;;;;;-143.57;100.00;51509.72;5066428;28;19933;-64
2022/12/14 10:14:49;;;;;;;;;;;;;;;-143.57;100.00;51440.16;5061030;28;20029;-64
2022/12/14 10:17:25;;;;;;;;;;;;;;;-143.57;100.00;51513.72;5070366;28;20551;-65
2022/12/14 10:19:51;;;;;;;;;;;;;;;-143.57;100.00;51481.91;5068015;28;19959;-65
2022/12/14 10:22:20;;;;;;;;;;;;;;;-143.57;100.00;51462.03;5069534;28;19989;-65
2022/12/14 10:24:49;;;;;;;;;;;;;;;-143.57;100.00;51493.84;5067424;28;20064;-65
2022/12/14 10:27:20;;;;;;;;;;;;;;;-143.57;100.00;51475.94;5071684;28;19928;-65
2022/12/14 10:29:56;;;;;;;;;;;;;;;-143.57;100.00;51477.94;5067707;28;19924;-64
2022/12/14 10:32:36;;;;;;;;;;;;;;;-143.57;100.00;51477.94;5066208;28;19972;-65
2022/12/14 10:35:13;;;;;;;;;;;;;;;-143.57;100.00;51458.03;5063768;28;20014;-64
2022/12/14 10:38:03;;;;;;;;;;;;;;;-143.57;100.00;51477.94;5067994;28;19928;-66
2022/12/14 10:40:30;;;;;;;;;;;;;;;-143.57;100.00;51468.00;5064664;28;19931;-65
2022/12/14 10:43:11;;;;;;;;;;;;;;;-143.57;100.00;51458.03;5072702;28;19989;-65
2022/12/14 10:45:50;;;;;;;;;;;;;;;-143.57;100.00;51489.84;5069348;28;19928;-64
2022/12/14 10:48:36;;;;;;;;;;;;;;;-143.57;100.00;51477.94;5073680;28;20548;-66
2022/12/14 10:51:06;;;;;;;;;;;;;;;-143.57;100.00;51493.84;5064919;28;20716;-66
2022/12/14 10:53:38;;;;;;;;;;;;;;;-143.57;100.00;51473.94;5066218;28;19978;-66
2022/12/14 10:56:12;;;;;;;;;;;;;;;-143.57;100.00;51466.00;5060640;28;19959;-66
2022/12/14 10:58:40;;;;;;;;;;;;;;;-143.57;100.00;51481.91;5064179;28;19928;-65
2022/12/14 11:01:10;;;;;;;;;;;;;;;-143.57;100.00;51473.94;5061934;28;19929;-66
2022/12/14 11:03:38;;;;;;;;;;;;;;;-143.57;100.00;51473.94;5069952;28;19931;-66
2022/12/14 11:06:13;;;;;;;;;;;;;;;-143.57;100.00;51479.91;5068259;28;19939;-66
2022/12/14 11:08:41;;;;;;;;;;;;;;;-143.57;100.00;51483.88;5072402;28;19939;-66
2022/12/14 11:11:24;;;;;;;;;;;;;;;-143.57;100.00;51464.00;5065556;28;19928;-65
2022/12/14 11:13:52;;;;;;;;;;;;;;;-143.57;100.00;51434.19;5072226;28;19929;-66
2022/12/14 11:16:22;;;;;;;;;;;;;;;-143.57;100.00;51473.94;5069189;28;20302;-66
2022/12/14 11:18:57;;;;;;;;;;;;;;;-143.57;100.00;51473.94;5070206;28;19932;-67
2022/12/14 11:21:28;;;;;;;;;;;;;;;-143.57;100.00;51466.00;5069346;28;19932;-67
2022/12/14 11:23:54;;;;;;;;;;;;;;;-143.57;100.00;51485.88;5101036;28;19928;-65
2022/12/14 11:26:25;;;;;;;;;;;;;;;-143.57;100.00;51473.94;5069509;28;19936;-67
2022/12/14 11:28:53;;;;;;;;;;;;;;;-143.57;100.00;51432.19;5068135;28;20016;-65
2022/12/14 11:31:21;;;;;;;;;;;;;;;-143.57;100.00;51462.03;5070930;28;19935;-67
2022/12/14 11:33:50;;;;;;;;;;;;;;;-143.57;100.00;51503.78;5070655;28;19931;-67
2022/12/14 11:36:35;;;;;;;;;;;;;;;-143.57;100.00;51458.03;5071446;28;19936;-67
2022/12/14 11:39:02;;;;;;;;;;;;;;;-143.57;100.00;51466.00;5067747;28;19931;-67
2022/12/14 11:41:32;;;;;;;;;;;;;;;-143.57;100.00;51479.91;5069777;28;20401;-67
2022/12/14 11:43:59;;;;;;;;;;;;;;;-143.57;100.00;51462.03;5069388;28;19960;-68
2022/12/14 11:46:53;;;;;;;;;;;;;;;-143.57;100.00;51454.06;5065443;28;19969;-67
2022/12/14 11:49:20;;;;;;;;;;;;;;;-143.57;100.00;51466.00;5060553;28;19928;-67
2022/12/14 11:51:53;;;;;;;;;;;;;;;-143.57;100.00;51458.03;5065916;28;20016;-67
2022/12/14 11:54:20;;;;;;;;;;;;;;;-143.57;100.00;51481.91;5058582;28;19951;-67
2022/12/14 11:56:50;;;;;;;;;;;;;;;-143.57;100.00;51471.97;5062912;28;19931;-68
2022/12/14 11:59:18;;;;;;;;;;;;;;;-143.57;100.00;51448.09;5062857;28;19938;-67
2022/12/14 12:01:44;;;;;;;;;;;;;;;-143.57;100.00;51468.00;5063018;28;20007;-67
2022/12/14 12:04:14;;;;;;;;;;;;;;;-143.57;100.00;51481.91;5064079;28;20393;-68
2022/12/14 12:06:41;;;;;;;;;;;;;;;-143.57;100.00;51466.00;5067873;28;19966;-66
2022/12/14 12:09:22;;;;;;;;;;;;;;;-143.57;100.00;51517.69;5071791;28;19932;-67
2022/12/14 12:11:51;;;;;;;;;;;;;;;-143.57;100.00;51468.00;5066430;28;20517;-66
2022/12/14 12:14:33;;;;;;;;;;;;;;;-143.57;100.00;51483.88;5070868;28;19929;-67
2022/12/14 12:17:00;;;;;;;;;;;;;;;-143.57;100.00;51406.34;5059930;28;19932;-67
2022/12/14 12:19:31;;;;;;;;;;;;;;;-143.57;100.00;51473.94;5067833;28;19928;-66
2022/12/14 12:22:00;;;;;;;;;;;;;;;-143.57;100.00;51424.25;5064965;28;20644;-66
2022/12/14 12:32:08;;;;;;;;;;;;;;;-143.57;100.00;51469.97;5018184;28;19928;-63
2022/12/14 12:34:37;;;;;;;;;;;;;;;-143.57;100.00;51442.16;5010678;28;19937;-64
2022/12/14 12:37:08;;;;;;;;;;;;;;;-143.57;100.00;51469.97;5012252;28;19929;-64
2022/12/14 12:39:55;;;;;;;;;;;;;;;-143.57;100.00;51479.91;5014467;28;19933;-64
2022/12/14 12:42:23;;;;;;;;;;;;;;;-143.57;100.00;51464.00;5015150;28;19933;-63
2022/12/14 12:44:53;;;;;;;;;;;;;;;-143.57;100.00;51466.00;5016206;28;20357;-64
2022/12/14 12:47:20;;;;;;;;;;;;;;;-143.57;100.00;51473.94;5014953;28;19929;-64
2022/12/14 12:50:08;;;;;;;;;;;;;;;-143.57;100.00;51481.91;5020291;28;19929;-64
2022/12/14 12:52:46;;;;;;;;;;;;;;;-143.57;100.00;51493.84;5018904;28;20630;-64
2022/12/14 12:55:15;;;;;;;;;;;;;;;-143.57;100.00;51460.03;5017635;28;20588;-63